createdAt,value
2023-03-26T00:04:10.366Z,4.82
2023-03-26T00:09:08.655Z,4.25
2023-03-26T00:14:06.090Z,4.35
2023-03-26T00:19:03.437Z,4.35
2023-03-26T00:24:03.726Z,3.67
2023-03-26T00:29:02.742Z,4.20
2023-03-26T00:34:03.047Z,4.18
2023-03-26T00:39:00.661Z,3.67
2023-03-26T00:43:59.126Z,3.47
2023-03-26T00:48:58.053Z,3.13
2023-03-26T00:53:56.458Z,3.55
2023-03-26T00:58:53.284Z,4.22
2023-03-26T01:04:08.436Z,3.95
2023-03-26T01:09:15.679Z,3.30
2023-03-26T01:14:18.179Z,3.30
2023-03-26T01:19:25.626Z,3.08
2023-03-26T01:24:23.398Z,2.33
2023-03-26T01:29:30.944Z,2.08
2023-03-26T01:34:37.244Z,1.98
2023-03-26T01:39:41.793Z,1.30
2023-03-26T01:44:45.823Z,1.73
2023-03-26T01:49:42.707Z,1.50
2023-03-26T01:54:40.735Z,1.77
2023-03-26T02:00:04.002Z,1.60
2023-03-26T02:05:16.798Z,1.75
2023-03-26T02:10:17.109Z,1.95
2023-03-26T02:15:16.567Z,2.00
2023-03-26T02:20:18.201Z,2.22
2023-03-26T02:25:17.878Z,1.83
2023-03-26T02:30:18.611Z,2.30
2023-03-26T02:35:18.436Z,2.47
2023-03-26T02:40:18.051Z,2.17
2023-03-26T02:45:16.244Z,2.17
2023-03-26T02:50:53.640Z,2.07
2023-03-26T02:56:17.090Z,2.30
2023-03-26T03:01:30.206Z,2.28
2023-03-26T03:06:30.319Z,2.60
2023-03-26T03:11:29.874Z,4.20
2023-03-26T03:16:27.027Z,2.10
2023-03-26T03:21:26.440Z,2.60
2023-03-26T03:26:27.032Z,2.22
2023-03-26T03:31:26.261Z,2.33
2023-03-26T03:36:27.514Z,2.30
2023-03-26T03:41:31.919Z,2.50
2023-03-26T03:46:32.739Z,1.80
2023-03-26T03:51:30.045Z,2.42
2023-03-26T03:56:30.003Z,2.58
2023-03-26T04:01:47.857Z,2.42
2023-03-26T04:06:54.448Z,2.42
2023-03-26T04:11:52.971Z,3.05
2023-03-26T04:17:26.161Z,2.60
2023-03-26T04:22:35.838Z,3.00
2023-03-26T04:27:36.777Z,3.05
2023-03-26T04:32:49.279Z,2.35
2023-03-26T04:37:47.205Z,2.35
2023-03-26T04:42:48.139Z,2.38
2023-03-26T04:48:14.864Z,2.17
2023-03-26T04:53:15.989Z,2.15
2023-03-26T04:58:33.528Z,2.00
2023-03-26T05:03:32.346Z,2.20
2023-03-26T05:08:34.529Z,2.63
2023-03-26T05:13:31.642Z,2.95
2023-03-26T05:18:34.448Z,2.75
2023-03-26T05:23:32.646Z,2.75
2023-03-26T05:28:45.779Z,2.05
2023-03-26T05:33:50.417Z,2.60
2023-03-26T05:38:48.897Z,3.13
2023-03-26T05:44:05.848Z,3.63
2023-03-26T05:49:03.802Z,2.90
2023-03-26T05:54:04.721Z,3.40
2023-03-26T05:59:28.149Z,3.45
2023-03-26T06:04:45.218Z,2.42
2023-03-26T06:10:18.550Z,2.42
2023-03-26T06:15:16.635Z,2.28
2023-03-26T06:20:37.039Z,2.20
2023-03-26T06:25:41.112Z,2.53
2023-03-26T06:31:04.509Z,2.50
2023-03-26T06:36:07.318Z,2.47
2023-03-26T06:41:07.728Z,3.00
2023-03-26T06:46:25.427Z,2.30
2023-03-26T06:52:02.361Z,1.90
2023-03-26T06:57:31.441Z,2.22
2023-03-26T07:03:04.124Z,2.70
2023-03-26T07:08:26.408Z,1.92
2023-03-26T07:13:41.819Z,1.63
2023-03-26T07:18:57.402Z,1.75
2023-03-26T07:24:01.500Z,1.75
2023-03-26T07:29:26.306Z,1.98
2023-03-26T07:34:49.258Z,1.70
2023-03-26T07:40:05.337Z,1.48
2023-03-26T07:45:42.560Z,2.00
2023-03-26T07:51:00.440Z,1.63
2023-03-26T07:56:20.248Z,1.55
2023-03-26T08:01:45.533Z,1.15
2023-03-26T08:06:53.760Z,1.83
2023-03-26T08:12:29.937Z,1.77
2023-03-26T08:17:34.431Z,1.65
2023-03-26T08:22:36.111Z,1.40
2023-03-26T08:27:39.439Z,1.67
2023-03-26T08:34:39.514Z,1.27
2023-03-26T08:39:16.123Z,1.58
2023-03-26T08:45:01.284Z,2.00
2023-03-26T08:50:21.333Z,1.27
2023-03-26T08:55:44.673Z,1.15
2023-03-26T09:01:08.821Z,1.63
2023-03-26T09:06:40.944Z,1.45
2023-03-26T09:12:23.770Z,1.65
2023-03-26T09:17:55.930Z,2.10
2023-03-26T09:23:17.507Z,1.45
2023-03-26T09:28:56.107Z,1.40
2023-03-26T09:34:04.285Z,1.33
2023-03-26T09:39:10.342Z,1.20
2023-03-26T09:44:55.147Z,1.20
2023-03-26T09:55:25.574Z,1.33
2023-03-26T10:00:28.804Z,1.05
2023-03-26T10:06:04.095Z,1.00
2023-03-26T10:11:11.982Z,1.15
2023-03-26T10:16:22.154Z,1.00
2023-03-26T10:21:28.561Z,1.40
2023-03-26T10:27:08.455Z,1.50
2023-03-26T10:32:22.169Z,1.17
2023-03-26T10:37:30.629Z,1.70
2023-03-26T10:42:47.405Z,1.20
2023-03-26T10:48:15.088Z,1.38
2023-03-26T10:53:21.321Z,2.10
2023-03-26T10:58:23.851Z,1.70
2023-03-26T11:03:42.827Z,1.60
2023-03-26T11:08:45.279Z,1.60
2023-03-26T11:13:51.926Z,1.52
2023-03-26T11:18:54.106Z,1.10
2023-03-26T11:24:04.856Z,1.45
2023-03-26T11:29:32.802Z,1.80
2023-03-26T11:34:34.661Z,1.38
2023-03-26T11:39:44.182Z,1.00
2023-03-26T11:44:46.564Z,2.10
2023-03-26T11:49:47.036Z,1.23
2023-03-26T11:54:47.559Z,1.13
2023-03-26T11:59:57.527Z,1.23
2023-03-26T12:05:12.748Z,1.40
2023-03-26T12:10:22.593Z,1.40
2023-03-26T12:15:21.310Z,1.55
2023-03-26T12:20:34.060Z,1.10
2023-03-26T12:25:32.993Z,1.30
2023-03-26T12:30:35.089Z,1.20
2023-03-26T12:35:34.307Z,1.15
2023-03-26T12:40:36.114Z,1.10
2023-03-26T12:45:40.054Z,1.15
2023-03-26T12:50:50.849Z,1.00
2023-03-26T12:55:59.678Z,1.30
2023-03-26T13:01:05.447Z,1.30
2023-03-26T13:06:28.520Z,1.40
2023-03-26T13:11:35.802Z,1.20
2023-03-26T13:16:44.795Z,1.20
2023-03-26T13:21:59.157Z,1.00
2023-03-26T13:27:09.845Z,0.97
2023-03-26T13:32:15.996Z,1.10
2023-03-26T13:37:21.638Z,0.85
2023-03-26T13:42:42.718Z,1.33
2023-03-26T13:47:46.000Z,1.00
2023-03-26T13:52:47.483Z,1.35
2023-03-26T13:57:50.654Z,1.48
2023-03-26T14:02:56.226Z,1.10
2023-03-26T14:07:57.723Z,1.27
2023-03-26T14:13:00.344Z,1.08
2023-03-26T14:18:06.693Z,1.17
2023-03-26T14:23:24.112Z,0.93
2023-03-26T14:28:41.162Z,0.80
2023-03-26T14:33:59.674Z,1.02
2023-03-26T14:39:13.147Z,0.90
2023-03-26T14:44:26.921Z,1.23
2023-03-26T14:50:19.646Z,1.00
2023-03-26T14:55:33.452Z,1.38
2023-03-26T15:01:07.150Z,0.80
2023-03-26T15:06:48.231Z,1.50
2023-03-26T15:11:53.296Z,1.38
2023-03-26T15:17:34.260Z,1.33
2023-03-26T15:23:14.122Z,0.90
2023-03-26T15:28:48.983Z,1.10
2023-03-26T15:34:20.211Z,2.20
2023-03-26T15:39:37.628Z,1.42
2023-03-26T15:44:54.154Z,1.63
2023-03-26T15:49:59.529Z,4.38
2023-03-26T16:00:21.905Z,1.23
2023-03-26T16:05:30.452Z,1.50
2023-03-26T16:10:37.738Z,1.42
2023-03-26T16:15:35.995Z,1.45
2023-03-26T16:20:34.368Z,1.48
2023-03-26T16:25:34.165Z,1.58
2023-03-26T16:30:32.919Z,1.38
2023-03-26T16:35:41.884Z,1.50
2023-03-26T16:40:59.339Z,1.38
2023-03-26T16:46:06.259Z,1.73
2023-03-26T16:51:16.413Z,1.60
2023-03-26T16:56:17.255Z,1.67
2023-03-26T17:01:26.692Z,1.75
2023-03-26T17:06:31.659Z,2.10
2023-03-26T17:11:41.963Z,2.38
2023-03-26T17:16:46.077Z,2.38
2023-03-26T17:21:52.453Z,2.25
2023-03-26T17:26:57.590Z,2.90
2023-03-26T17:36:58.374Z,2.58
2023-03-26T17:42:10.888Z,2.40
2023-03-26T17:47:34.550Z,2.00
2023-03-26T17:52:47.394Z,2.72
2023-03-26T17:57:47.334Z,3.75
2023-03-26T18:02:51.292Z,3.00
2023-03-26T18:08:36.501Z,3.05
2023-03-26T18:13:49.929Z,2.50
2023-03-26T18:18:51.604Z,2.30
2023-03-26T18:23:50.544Z,2.10
2023-03-26T18:28:52.858Z,2.72
2023-03-26T18:33:55.186Z,2.30
2023-03-26T18:39:03.820Z,2.25
2023-03-26T18:44:07.649Z,1.73
2023-03-26T18:49:05.823Z,2.20
2023-03-26T18:54:06.146Z,2.03
2023-03-26T18:59:06.151Z,1.92
2023-03-26T19:04:06.703Z,1.67
2023-03-26T19:09:07.802Z,1.65
2023-03-26T19:14:17.361Z,2.28
2023-03-26T19:19:18.905Z,1.88
2023-03-26T19:24:20.665Z,1.80
2023-03-26T19:29:22.830Z,2.00
2023-03-26T19:34:31.042Z,2.45
2023-03-26T19:39:38.607Z,2.10
2023-03-26T19:44:39.099Z,1.88
2023-03-26T19:49:47.384Z,2.03
2023-03-26T19:54:59.430Z,2.42
2023-03-26T19:59:58.257Z,2.97
2023-03-26T20:04:55.237Z,2.55
2023-03-26T20:09:52.629Z,2.58
2023-03-26T20:14:49.640Z,2.20
2023-03-26T20:19:47.534Z,1.67
2023-03-26T20:24:44.612Z,2.58
2023-03-26T20:29:41.802Z,2.58
2023-03-26T20:34:39.367Z,2.03
2023-03-26T20:39:37.870Z,1.65
2023-03-26T20:44:35.230Z,1.90
2023-03-26T20:49:32.411Z,4.57
2023-03-26T20:54:29.743Z,2.55
2023-03-26T20:59:28.346Z,2.65
2023-03-26T21:04:25.840Z,2.10
2023-03-26T21:09:24.753Z,2.75
2023-03-26T21:14:25.293Z,2.33
2023-03-26T21:19:23.699Z,2.20
2023-03-26T21:24:32.518Z,1.80
2023-03-26T21:29:30.005Z,1.85
2023-03-26T21:34:28.594Z,2.15
2023-03-26T21:39:25.992Z,1.70
2023-03-26T21:44:23.523Z,1.80
2023-03-26T21:49:21.067Z,1.33
2023-03-26T21:54:24.536Z,1.83
2023-03-26T21:59:33.290Z,1.65
2023-03-26T22:04:36.277Z,1.88
2023-03-26T22:09:36.540Z,1.27
2023-03-26T22:14:33.908Z,1.45
2023-03-26T22:19:30.822Z,2.15
2023-03-26T22:24:27.741Z,1.50
2023-03-26T22:29:25.404Z,1.80
2023-03-26T22:34:23.064Z,1.70
2023-03-26T22:39:20.217Z,1.45
2023-03-26T22:44:20.365Z,1.58
2023-03-26T22:49:18.288Z,1.95
2023-03-26T22:54:15.018Z,1.48
2023-03-26T22:59:12.570Z,2.00
2023-03-26T23:04:09.597Z,1.65
2023-03-26T23:09:07.345Z,2.08
2023-03-26T23:14:04.121Z,2.00
2023-03-26T23:19:01.042Z,1.80
2023-03-26T23:24:00.920Z,1.95
2023-03-26T23:28:58.437Z,1.90
2023-03-26T23:33:55.758Z,1.95
2023-03-26T23:38:53.343Z,1.90
2023-03-26T23:43:54.192Z,1.67
2023-03-26T23:48:54.152Z,2.20
2023-03-26T23:53:51.875Z,2.72
2023-03-26T23:58:48.956Z,2.05
